Needa, Texas
Current Conditions -  °F | °C
As of 7:35 AM on Saturday 25 Oct 2014 (Local Time) from KT20 Reporting Station
Clear Clear  
Wind Chill: 59°   Ceiling: Unl
Heat Index: 59°   Visibility: 7mi
Dew Point: 58°   Wind: 0mph
Humidity: 95%   Direction: NA
Pressure: 30.15"   Gusts: NA
Location:  29.4298°N, 97.5714°W
Report Text: KT20 251235Z AUTO 00000KT 7SM CLR 15/14 A3015 RMK AO2 T01520144
Loading
Personal Weather Stations






























Interactive Weather Map
Tropical Storm Tracking
New forecast layout! Learn more

10-Day Weather Forecast

Advertisements
Track Severe Weather on mobile